createdAt,value
2024-01-28T04:32:17.018Z,6.68
2024-01-28T04:34:44.432Z,7.18
2024-01-28T04:37:11.633Z,6.22
2024-01-28T04:39:39.055Z,6.10
2024-01-28T04:42:07.531Z,7.70
2024-01-28T04:44:34.553Z,6.05
2024-01-28T04:47:02.712Z,6.38
2024-01-28T04:49:30.284Z,6.50
2024-01-28T04:51:58.094Z,6.30
2024-01-28T04:54:25.184Z,7.25
2024-01-28T04:56:52.610Z,6.97
2024-01-28T04:59:19.660Z,6.57
2024-01-28T05:01:47.131Z,6.75
2024-01-28T05:04:14.484Z,7.38
2024-01-28T05:06:41.720Z,6.97
2024-01-28T05:09:10.492Z,6.75
2024-01-28T05:11:37.944Z,7.15
2024-01-28T05:14:05.671Z,5.60
2024-01-28T05:16:32.797Z,7.55
2024-01-28T05:19:00.884Z,6.95
2024-01-28T05:21:28.016Z,7.43
2024-01-28T05:23:55.066Z,5.97
2024-01-28T05:26:22.246Z,7.38
2024-01-28T05:28:49.835Z,7.00
2024-01-28T05:31:16.881Z,6.90
2024-01-28T05:33:45.048Z,7.18
2024-01-28T05:36:15.390Z,6.82
2024-01-28T05:38:43.039Z,6.60
2024-01-28T05:41:10.158Z,6.50
2024-01-28T05:43:37.278Z,5.72
2024-01-28T05:46:04.709Z,6.38
2024-01-28T05:48:32.786Z,6.20
2024-01-28T05:51:00.035Z,5.63
2024-01-28T05:53:27.063Z,6.88
2024-01-28T05:55:54.115Z,6.38
2024-01-28T05:58:22.542Z,5.63
2024-01-28T06:00:49.838Z,6.63
2024-01-28T06:03:17.032Z,6.80
2024-01-28T06:05:44.149Z,6.60
2024-01-28T06:08:11.326Z,7.13
2024-01-28T06:10:38.394Z,6.55
2024-01-28T06:13:05.625Z,5.90
2024-01-28T06:15:32.963Z,6.38
2024-01-28T06:18:02.403Z,7.82
2024-01-28T06:20:29.477Z,6.60
2024-01-28T06:22:56.481Z,7.57
2024-01-28T06:25:23.538Z,6.22
2024-01-28T06:27:50.717Z,7.20
2024-01-28T06:30:17.992Z,8.02
2024-01-28T06:32:45.059Z,7.97
2024-01-28T06:35:12.115Z,7.07
2024-01-28T06:37:39.139Z,6.70
2024-01-28T06:40:08.376Z,7.18
2024-01-28T06:42:35.442Z,6.93
2024-01-28T06:45:02.684Z,7.20
2024-01-28T06:47:29.765Z,7.68
2024-01-28T06:49:57.123Z,7.20
2024-01-28T06:52:24.259Z,7.63
2024-01-28T06:54:51.314Z,7.90
2024-01-28T06:57:20.561Z,7.40
2024-01-28T06:59:47.634Z,7.45
2024-01-28T07:02:14.654Z,7.60
2024-01-28T07:04:42.300Z,9.02
2024-01-28T07:07:09.686Z,7.88
2024-01-28T07:09:36.857Z,9.30
2024-01-28T07:12:05.091Z,8.05
2024-01-28T07:14:32.204Z,8.68
2024-01-28T07:16:59.278Z,8.57
2024-01-28T07:19:26.412Z,9.07
2024-01-28T07:21:53.583Z,7.05
2024-01-28T07:24:20.808Z,9.38
2024-01-28T07:26:48.425Z,8.50
2024-01-28T07:29:15.435Z,8.75
2024-01-28T07:31:42.960Z,9.40
2024-01-28T07:34:10.258Z,9.98
2024-01-28T07:36:39.077Z,9.73
2024-01-28T07:39:08.332Z,10.15
2024-01-28T07:41:37.487Z,10.98
2024-01-28T07:44:04.994Z,9.68
2024-01-28T07:46:31.976Z,8.68
2024-01-28T07:48:59.229Z,8.35
2024-01-28T07:51:26.368Z,10.00
2024-01-28T07:53:53.426Z,9.50
2024-01-28T07:56:20.404Z,9.52
2024-01-28T07:58:47.505Z,10.85
2024-01-28T08:01:14.515Z,10.05
2024-01-28T08:03:41.662Z,10.85
2024-01-28T08:06:09.239Z,9.98
2024-01-28T08:08:36.381Z,8.68
2024-01-28T08:11:04.043Z,11.38
2024-01-28T08:13:31.605Z,11.52
2024-01-28T08:16:03.120Z,11.63
2024-01-28T08:18:30.800Z,10.98
2024-01-28T08:20:57.954Z,11.90
2024-01-28T08:23:25.304Z,10.52
2024-01-28T08:25:52.457Z,12.07
2024-01-28T08:28:19.590Z,11.10
2024-01-28T08:30:47.463Z,10.32
2024-01-28T08:33:14.609Z,10.43
2024-01-28T08:35:42.776Z,10.20
2024-01-28T08:38:10.300Z,10.23
2024-01-28T08:40:39.049Z,10.18
2024-01-28T08:43:08.343Z,11.02
2024-01-28T08:45:37.655Z,10.88
2024-01-28T08:48:05.613Z,9.27
2024-01-28T08:50:32.854Z,8.77
2024-01-28T08:52:59.883Z,8.52
2024-01-28T08:55:26.913Z,6.57
2024-01-28T08:57:54.102Z,7.68
2024-01-28T09:00:21.401Z,7.40
2024-01-28T09:02:48.517Z,6.30
2024-01-28T09:05:15.564Z,5.78
2024-01-28T09:07:46.888Z,5.22
2024-01-28T09:12:41.355Z,4.90
2024-01-28T09:15:08.824Z,4.80
2024-01-28T09:17:35.895Z,4.85
2024-01-28T09:20:03.087Z,4.55
2024-01-28T09:22:30.342Z,5.38
2024-01-28T09:24:57.531Z,4.55
2024-01-28T09:27:24.871Z,3.92
2024-01-28T09:29:52.303Z,4.30
2024-01-28T09:32:22.536Z,5.15
2024-01-28T09:34:49.798Z,3.70
2024-01-28T09:37:17.143Z,3.95
2024-01-28T09:39:45.182Z,4.00
2024-01-28T09:42:20.744Z,3.63
2024-01-28T09:44:48.825Z,3.70
2024-01-28T09:47:15.812Z,3.42
2024-01-28T09:49:43.022Z,3.08
2024-01-28T09:52:11.843Z,3.42
2024-01-28T09:54:48.057Z,3.08
2024-01-28T09:57:16.404Z,3.25
2024-01-28T09:59:44.204Z,3.03
2024-01-28T10:02:11.332Z,3.53
2024-01-28T10:04:39.469Z,3.90
2024-01-28T10:07:08.911Z,3.65
2024-01-28T10:09:36.068Z,3.20
2024-01-28T10:12:03.963Z,2.92
2024-01-28T10:14:30.991Z,3.35
2024-01-28T10:16:59.210Z,2.78
2024-01-28T10:19:26.471Z,2.63
2024-01-28T10:21:54.366Z,3.55
2024-01-28T10:24:21.559Z,3.00
2024-01-28T10:26:49.047Z,2.90
2024-01-28T10:29:17.202Z,2.75
2024-01-28T10:31:44.318Z,2.83
2024-01-28T10:34:11.574Z,3.30
2024-01-28T10:36:41.650Z,3.03
2024-01-28T10:39:11.508Z,3.15
2024-01-28T10:41:39.774Z,2.90
2024-01-28T10:44:07.857Z,2.63
2024-01-28T10:46:41.068Z,3.53
2024-01-28T10:49:09.161Z,2.70
2024-01-28T10:51:37.428Z,2.42
2024-01-28T10:54:05.792Z,2.08
2024-01-28T10:56:33.764Z,2.95
2024-01-28T10:59:00.973Z,2.72
2024-01-28T11:01:28.540Z,2.97
2024-01-28T11:03:56.406Z,2.38
2024-01-28T11:06:26.079Z,2.53
2024-01-28T11:08:56.652Z,2.40
2024-01-28T11:11:24.519Z,2.47
2024-01-28T11:13:51.668Z,2.33
2024-01-28T11:16:20.593Z,2.55
2024-01-28T11:18:57.295Z,2.53
2024-01-28T11:21:25.980Z,2.15
2024-01-28T11:23:54.662Z,1.90
2024-01-28T11:26:21.805Z,2.22
2024-01-28T11:28:53.926Z,2.38
2024-01-28T11:31:24.512Z,2.70
2024-01-28T11:33:51.804Z,2.50
2024-01-28T11:36:25.448Z,2.10
2024-01-28T11:38:52.888Z,2.35
2024-01-28T11:41:20.296Z,1.92
2024-01-28T11:43:47.967Z,2.38
2024-01-28T11:46:15.308Z,2.25
2024-01-28T11:48:43.521Z,2.40
2024-01-28T11:51:11.397Z,2.33
2024-01-28T11:53:39.050Z,2.28
2024-01-28T11:56:09.465Z,1.98
2024-01-28T11:58:36.618Z,2.15
2024-01-28T12:01:04.399Z,2.20
2024-01-28T12:03:31.543Z,2.10
2024-01-28T12:05:59.171Z,2.75
2024-01-28T12:08:29.642Z,2.60
2024-01-28T12:11:00.257Z,2.97
2024-01-28T12:13:28.288Z,2.50
2024-01-28T12:16:00.531Z,2.17
2024-01-28T12:18:34.833Z,2.13
2024-01-28T12:21:02.147Z,2.00
2024-01-28T12:23:33.009Z,1.60
2024-01-28T12:28:27.277Z,2.00
2024-01-28T12:30:56.117Z,1.95
2024-01-28T12:33:23.489Z,1.80
2024-01-28T12:35:50.896Z,2.17
2024-01-28T12:38:18.017Z,1.95
2024-01-28T12:40:45.096Z,2.20
2024-01-28T12:43:12.353Z,1.77
2024-01-28T12:45:39.773Z,2.00
2024-01-28T12:48:07.529Z,1.90
2024-01-28T12:50:34.552Z,1.60
2024-01-28T12:53:01.736Z,1.98
2024-01-28T12:55:28.849Z,2.10
2024-01-28T12:57:56.436Z,2.42
2024-01-28T13:00:23.737Z,2.30
2024-01-28T13:02:51.160Z,2.33
2024-01-28T13:05:18.607Z,1.58
2024-01-28T13:07:45.684Z,2.05
2024-01-28T13:10:12.671Z,1.80
2024-01-28T13:12:40.146Z,1.75
2024-01-28T13:15:08.826Z,1.85
2024-01-28T13:17:37.330Z,1.90
2024-01-28T13:20:05.061Z,1.30
2024-01-28T13:22:32.144Z,1.50
2024-01-28T13:24:59.924Z,1.75
2024-01-28T13:27:27.062Z,1.67
2024-01-28T13:29:56.472Z,1.40
2024-01-28T13:32:25.462Z,1.58
2024-01-28T13:34:52.752Z,1.42
2024-01-28T13:37:19.807Z,1.65
2024-01-28T13:39:47.012Z,1.73
2024-01-28T13:42:14.164Z,1.50
2024-01-28T13:44:41.153Z,1.48
2024-01-28T13:47:08.529Z,1.45
2024-01-28T13:49:35.683Z,1.60
2024-01-28T13:52:05.066Z,1.40
2024-01-28T13:54:32.581Z,1.33
2024-01-28T13:56:59.712Z,1.42
2024-01-28T13:59:26.687Z,1.55
2024-01-28T14:01:53.764Z,1.63
2024-01-28T14:04:21.436Z,1.50
2024-01-28T14:06:49.043Z,1.80
2024-01-28T14:09:18.157Z,1.77
2024-01-28T14:11:45.246Z,1.40
2024-01-28T14:14:12.937Z,1.63
2024-01-28T14:16:39.945Z,1.67
2024-01-28T14:19:07.101Z,1.65
2024-01-28T14:21:34.695Z,1.88
2024-01-28T14:24:01.745Z,1.90
2024-01-28T14:26:28.774Z,1.85
2024-01-28T14:28:55.741Z,2.00
2024-01-28T14:31:26.177Z,1.88
2024-01-28T14:33:54.634Z,1.80
2024-01-28T14:36:21.960Z,2.00
2024-01-28T14:38:49.413Z,2.00
2024-01-28T14:41:17.460Z,2.20
2024-01-28T14:43:44.579Z,2.25
2024-01-28T14:46:12.096Z,2.35
2024-01-28T14:48:40.228Z,2.28
2024-01-28T14:51:07.909Z,2.33
2024-01-28T14:53:34.968Z,2.35
2024-01-28T14:56:02.952Z,2.28
2024-01-28T14:58:29.972Z,2.40
2024-01-28T15:00:57.073Z,2.28
2024-01-28T15:03:24.095Z,2.35
2024-01-28T15:05:51.280Z,1.83
2024-01-28T15:08:18.242Z,2.50
2024-01-28T15:10:45.959Z,2.15
2024-01-28T15:13:13.014Z,2.42
2024-01-28T15:15:40.098Z,2.83
2024-01-28T15:18:07.384Z,1.98
2024-01-28T15:20:34.458Z,2.50
2024-01-28T15:23:01.439Z,1.85
2024-01-28T15:25:28.493Z,2.20
2024-01-28T15:27:55.731Z,2.10
2024-01-28T15:30:23.820Z,2.25
2024-01-28T15:32:51.038Z,2.10
2024-01-28T15:35:18.204Z,2.17
2024-01-28T15:37:45.279Z,2.30
2024-01-28T15:40:13.179Z,2.58
2024-01-28T15:42:40.774Z,2.05
2024-01-28T15:45:08.623Z,2.17
2024-01-28T15:47:37.736Z,2.00
2024-01-28T15:50:05.201Z,1.90
2024-01-28T15:52:32.300Z,2.00
2024-01-28T15:54:59.488Z,1.95
2024-01-28T15:57:26.709Z,2.10
2024-01-28T16:00:04.580Z,2.10
2024-01-28T16:02:34.761Z,2.47
2024-01-28T16:05:02.104Z,2.22
2024-01-28T16:07:29.376Z,2.20
2024-01-28T16:09:57.768Z,3.00
2024-01-28T16:12:25.794Z,3.30
2024-01-28T16:14:52.973Z,2.70
2024-01-28T16:17:24.800Z,3.20
2024-01-28T16:19:52.465Z,3.50
2024-01-28T16:22:19.915Z,3.75
2024-01-28T16:24:47.446Z,4.03
2024-01-28T16:27:14.596Z,3.30
2024-01-28T16:29:45.472Z,3.95
2024-01-28T16:32:13.418Z,4.38
2024-01-28T16:34:41.041Z,4.10
2024-01-28T16:37:08.337Z,4.53
2024-01-28T16:39:35.975Z,4.18
2024-01-28T16:42:03.157Z,5.05
2024-01-28T16:44:30.930Z,4.85
2024-01-28T16:46:58.247Z,4.80
2024-01-28T16:49:26.174Z,5.80
2024-01-28T16:51:53.728Z,5.65
2024-01-28T16:54:21.248Z,6.43
2024-01-28T16:56:48.866Z,7.40
2024-01-28T16:59:17.055Z,7.53
2024-01-28T17:01:44.399Z,7.63
2024-01-28T17:04:11.807Z,7.00
2024-01-28T17:06:39.924Z,6.75
2024-01-28T17:09:07.203Z,8.30
2024-01-28T17:11:34.734Z,7.85
2024-01-28T17:14:06.114Z,9.50
2024-01-28T17:16:33.509Z,8.93
2024-01-28T17:19:02.965Z,8.75
2024-01-28T17:21:30.261Z,9.73
2024-01-28T17:23:57.366Z,8.98
2024-01-28T17:26:24.390Z,8.90
2024-01-28T17:28:53.951Z,8.63
2024-01-28T17:31:21.070Z,9.30
2024-01-28T17:33:48.423Z,7.65
2024-01-28T17:36:16.342Z,8.30
2024-01-28T17:38:43.605Z,6.82
2024-01-28T17:41:10.874Z,7.05
2024-01-28T17:43:38.053Z,6.55
2024-01-28T17:46:05.401Z,6.35
2024-01-28T17:48:32.827Z,6.47
2024-01-28T17:51:00.025Z,7.20
2024-01-28T17:53:27.358Z,6.88
2024-01-28T17:55:55.500Z,6.43
2024-01-28T17:58:22.973Z,7.78
2024-01-28T18:00:50.181Z,7.47
2024-01-28T18:03:17.356Z,8.93
2024-01-28T18:05:45.456Z,9.13
2024-01-28T18:08:12.666Z,9.45
2024-01-28T18:10:39.814Z,11.30
2024-01-28T18:13:06.949Z,10.90
2024-01-28T18:15:34.081Z,11.65
2024-01-28T18:18:02.545Z,14.60
2024-01-28T18:20:31.319Z,12.77
2024-01-28T18:22:58.466Z,13.75
2024-01-28T18:25:27.546Z,14.85
2024-01-28T18:27:55.040Z,12.80
2024-01-28T18:30:22.436Z,14.55
2024-01-28T18:32:50.036Z,12.90
2024-01-28T18:35:17.900Z,12.15
2024-01-28T18:37:45.161Z,14.70
2024-01-28T18:40:15.219Z,15.02
2024-01-28T18:42:43.278Z,11.88
2024-01-28T18:45:11.471Z,12.93
2024-01-28T18:47:38.631Z,12.90
2024-01-28T18:50:06.486Z,16.25
2024-01-28T18:52:33.647Z,14.57
2024-01-28T18:55:01.020Z,16.52
2024-01-28T18:57:28.575Z,14.27
2024-01-28T18:59:55.641Z,11.90
2024-01-28T19:02:22.790Z,14.02
2024-01-28T19:04:49.974Z,19.30
2024-01-28T19:07:17.188Z,11.25
2024-01-28T19:09:46.250Z,11.15
2024-01-28T19:12:13.553Z,10.48
2024-01-28T19:14:40.640Z,10.13
2024-01-28T19:17:07.687Z,13.38
2024-01-28T19:19:35.103Z,12.07
2024-01-28T19:22:02.417Z,11.23
2024-01-28T19:24:30.827Z,11.90
2024-01-28T19:26:58.354Z,9.80
2024-01-28T19:29:26.577Z,8.98
2024-01-28T19:31:53.832Z,10.30
2024-01-28T19:34:21.159Z,8.50
2024-01-28T19:36:48.912Z,10.60
2024-01-28T19:39:16.847Z,9.48
2024-01-28T19:41:47.619Z,10.68
2024-01-28T19:44:15.761Z,10.50
2024-01-28T19:46:43.120Z,13.65
2024-01-28T19:49:10.357Z,23.77
2024-01-28T19:51:37.490Z,28.15
2024-01-28T19:54:04.677Z,27.48
2024-01-28T19:56:31.757Z,23.92
2024-01-28T19:59:00.964Z,20.40
2024-01-28T20:01:29.023Z,20.58
2024-01-28T20:03:56.427Z,20.98
2024-01-28T20:06:32.517Z,21.23
2024-01-28T20:09:05.520Z,18.85
2024-01-28T20:11:32.970Z,16.40
2024-01-28T20:13:59.962Z,12.32
2024-01-28T20:16:27.061Z,11.80
2024-01-28T20:18:54.242Z,12.18
2024-01-28T20:21:22.075Z,12.65
2024-01-28T20:23:49.233Z,12.32
2024-01-28T20:26:16.714Z,11.05
2024-01-28T20:28:44.076Z,11.45
2024-01-28T20:31:16.140Z,10.75
2024-01-28T20:33:43.344Z,8.63
2024-01-28T20:36:10.470Z,8.95
2024-01-28T20:38:38.072Z,8.95
2024-01-28T20:41:05.212Z,9.10
2024-01-28T20:43:32.713Z,8.98
2024-01-28T20:46:01.154Z,9.27
2024-01-28T20:48:28.823Z,10.90
2024-01-28T20:50:57.199Z,11.20
2024-01-28T20:53:25.404Z,10.73
2024-01-28T20:55:52.511Z,9.80
2024-01-28T20:58:19.650Z,10.00
2024-01-28T21:00:48.092Z,10.85
2024-01-28T21:03:15.440Z,10.25
2024-01-28T21:05:42.696Z,9.68
2024-01-28T21:08:10.098Z,10.65
2024-01-28T21:10:39.769Z,9.23
2024-01-28T21:13:07.352Z,9.50
2024-01-28T21:15:34.621Z,10.52
2024-01-28T21:18:02.266Z,9.57
2024-01-28T21:20:30.036Z,12.10
2024-01-28T21:22:57.155Z,10.07
2024-01-28T21:25:24.756Z,11.10
2024-01-28T21:27:53.749Z,9.45
2024-01-28T21:30:20.905Z,9.50
2024-01-28T21:32:48.129Z,9.43
2024-01-28T21:35:15.405Z,10.27
2024-01-28T21:37:42.440Z,10.70
2024-01-28T21:40:09.930Z,10.40
2024-01-28T21:42:37.237Z,11.38
2024-01-28T21:45:05.901Z,10.30
2024-01-28T21:47:34.089Z,10.27
2024-01-28T21:50:01.425Z,10.68
2024-01-28T21:52:28.584Z,9.48
2024-01-28T21:54:55.866Z,8.65
2024-01-28T21:57:23.448Z,9.68
2024-01-28T21:59:50.701Z,8.80
2024-01-28T22:02:17.703Z,8.27
2024-01-28T22:04:44.798Z,7.95
2024-01-28T22:07:12.439Z,7.93
2024-01-28T22:09:39.546Z,8.57
2024-01-28T22:12:07.562Z,8.55
2024-01-28T22:14:34.770Z,11.68
2024-01-28T22:17:01.776Z,11.02
2024-01-28T22:19:29.425Z,11.85
2024-01-28T22:21:56.507Z,14.73
2024-01-28T22:24:24.534Z,13.73
2024-01-28T22:26:51.597Z,14.00
2024-01-28T22:29:18.804Z,13.13
2024-01-28T22:31:45.926Z,13.82
2024-01-28T22:34:13.136Z,12.95
2024-01-28T22:36:40.316Z,14.73
2024-01-28T22:39:08.084Z,11.95
2024-01-28T22:41:35.311Z,16.10
2024-01-28T22:44:02.415Z,12.10
2024-01-28T22:46:29.561Z,11.07
2024-01-28T22:48:56.728Z,11.23
2024-01-28T22:51:23.894Z,13.02
2024-01-28T22:53:50.901Z,13.05
2024-01-28T22:56:18.291Z,12.88
2024-01-28T22:58:45.566Z,10.50
